sensor_id;sensor_type;location;lat;lon;timestamp;P1;durP1;ratioP1;P2;durP2;ratioP2
67768;SDS011;54569;52.018;5.584;2023-06-14T00:00:40;3.65;;;2.75;;
67768;SDS011;54569;52.018;5.584;2023-06-14T00:03:07;5.07;;;3.05;;
67768;SDS011;54569;52.018;5.584;2023-06-14T00:05:35;4.38;;;2.92;;
67768;SDS011;54569;52.018;5.584;2023-06-14T00:08:06;5.25;;;2.80;;
67768;SDS011;54569;52.018;5.584;2023-06-14T00:10:33;6.15;;;3.47;;
67768;SDS011;54569;52.018;5.584;2023-06-14T00:13:03;3.33;;;2.83;;
67768;SDS011;54569;52.018;5.584;2023-06-14T00:15:32;4.57;;;3.30;;
67768;SDS011;54569;52.018;5.584;2023-06-14T00:17:58;2.72;;;2.45;;
67768;SDS011;54569;52.018;5.584;2023-06-14T00:20:27;7.22;;;3.10;;
67768;SDS011;54569;52.018;5.584;2023-06-14T00:22:54;7.38;;;3.20;;
67768;SDS011;54569;52.018;5.584;2023-06-14T00:25:21;5.13;;;2.85;;
67768;SDS011;54569;52.018;5.584;2023-06-14T00:27:48;4.93;;;2.85;;
67768;SDS011;54569;52.018;5.584;2023-06-14T00:30:14;4.70;;;2.80;;
67768;SDS011;54569;52.018;5.584;2023-06-14T00:32:40;5.55;;;2.88;;
67768;SDS011;54569;52.018;5.584;2023-06-14T00:35:08;4.47;;;3.00;;
67768;SDS011;54569;52.018;5.584;2023-06-14T00:37:35;4.07;;;3.47;;
67768;SDS011;54569;52.018;5.584;2023-06-14T00:40:01;5.20;;;2.90;;
67768;SDS011;54569;52.018;5.584;2023-06-14T00:42:29;5.38;;;3.10;;
67768;SDS011;54569;52.018;5.584;2023-06-14T00:44:56;4.35;;;2.97;;
67768;SDS011;54569;52.018;5.584;2023-06-14T00:47:21;5.47;;;3.38;;
67768;SDS011;54569;52.018;5.584;2023-06-14T00:49:49;3.28;;;2.88;;
67768;SDS011;54569;52.018;5.584;2023-06-14T00:52:19;7.20;;;2.97;;
67768;SDS011;54569;52.018;5.584;2023-06-14T00:54:46;4.55;;;3.10;;
67768;SDS011;54569;52.018;5.584;2023-06-14T00:57:12;5.00;;;3.00;;
67768;SDS011;54569;52.018;5.584;2023-06-14T00:59:44;3.25;;;2.95;;
67768;SDS011;54569;52.018;5.584;2023-06-14T01:02:11;5.95;;;3.08;;
67768;SDS011;54569;52.018;5.584;2023-06-14T01:04:37;8.88;;;3.22;;
67768;SDS011;54569;52.018;5.584;2023-06-14T01:07:12;2.83;;;2.47;;
67768;SDS011;54569;52.018;5.584;2023-06-14T01:12:17;4.43;;;3.00;;
67768;SDS011;54569;52.018;5.584;2023-06-14T01:14:52;7.47;;;2.80;;
67768;SDS011;54569;52.018;5.584;2023-06-14T01:17:20;5.15;;;2.90;;
67768;SDS011;54569;52.018;5.584;2023-06-14T01:19:48;6.60;;;2.80;;
67768;SDS011;54569;52.018;5.584;2023-06-14T01:22:14;5.00;;;3.38;;
67768;SDS011;54569;52.018;5.584;2023-06-14T01:24:40;6.90;;;3.10;;
67768;SDS011;54569;52.018;5.584;2023-06-14T01:27:10;5.47;;;3.40;;
67768;SDS011;54569;52.018;5.584;2023-06-14T01:29:38;5.40;;;2.92;;
67768;SDS011;54569;52.018;5.584;2023-06-14T01:32:13;4.07;;;3.05;;
67768;SDS011;54569;52.018;5.584;2023-06-14T01:34:39;4.63;;;2.85;;
67768;SDS011;54569;52.018;5.584;2023-06-14T01:37:05;3.13;;;2.90;;
67768;SDS011;54569;52.018;5.584;2023-06-14T01:39:32;4.63;;;2.70;;
67768;SDS011;54569;52.018;5.584;2023-06-14T01:41:59;6.10;;;2.70;;
67768;SDS011;54569;52.018;5.584;2023-06-14T01:44:25;3.75;;;2.90;;
67768;SDS011;54569;52.018;5.584;2023-06-14T01:46:53;4.05;;;3.25;;
67768;SDS011;54569;52.018;5.584;2023-06-14T01:49:21;5.15;;;2.83;;
67768;SDS011;54569;52.018;5.584;2023-06-14T01:51:47;5.13;;;3.30;;
67768;SDS011;54569;52.018;5.584;2023-06-14T01:54:14;5.60;;;2.80;;
67768;SDS011;54569;52.018;5.584;2023-06-14T01:56:40;4.03;;;2.78;;
67768;SDS011;54569;52.018;5.584;2023-06-14T01:59:06;3.30;;;2.80;;
67768;SDS011;54569;52.018;5.584;2023-06-14T02:01:32;3.55;;;2.80;;
67768;SDS011;54569;52.018;5.584;2023-06-14T02:04:00;3.72;;;2.60;;
67768;SDS011;54569;52.018;5.584;2023-06-14T02:06:26;4.95;;;2.88;;
67768;SDS011;54569;52.018;5.584;2023-06-14T02:08:53;10.20;;;3.20;;
67768;SDS011;54569;52.018;5.584;2023-06-14T02:11:18;4.28;;;2.60;;
67768;SDS011;54569;52.018;5.584;2023-06-14T02:13:44;6.10;;;3.28;;
67768;SDS011;54569;52.018;5.584;2023-06-14T02:16:10;3.50;;;3.20;;
67768;SDS011;54569;52.018;5.584;2023-06-14T02:18:37;5.30;;;2.80;;
67768;SDS011;54569;52.018;5.584;2023-06-14T02:21:02;5.43;;;2.83;;
67768;SDS011;54569;52.018;5.584;2023-06-14T02:23:28;4.50;;;2.72;;
67768;SDS011;54569;52.018;5.584;2023-06-14T02:25:53;5.00;;;2.80;;
67768;SDS011;54569;52.018;5.584;2023-06-14T02:28:19;7.38;;;2.83;;
67768;SDS011;54569;52.018;5.584;2023-06-14T02:30:45;2.95;;;2.58;;
67768;SDS011;54569;52.018;5.584;2023-06-14T02:33:11;7.13;;;2.72;;
67768;SDS011;54569;52.018;5.584;2023-06-14T02:35:39;6.07;;;2.60;;
67768;SDS011;54569;52.018;5.584;2023-06-14T02:38:04;8.98;;;3.22;;
67768;SDS011;54569;52.018;5.584;2023-06-14T02:40:30;4.25;;;2.70;;
67768;SDS011;54569;52.018;5.584;2023-06-14T02:42:56;5.95;;;2.80;;
67768;SDS011;54569;52.018;5.584;2023-06-14T02:45:21;4.80;;;2.92;;
67768;SDS011;54569;52.018;5.584;2023-06-14T02:47:50;5.65;;;3.05;;
67768;SDS011;54569;52.018;5.584;2023-06-14T02:50:16;5.05;;;2.60;;
67768;SDS011;54569;52.018;5.584;2023-06-14T02:52:43;5.93;;;2.80;;
67768;SDS011;54569;52.018;5.584;2023-06-14T02:55:09;13.05;;;2.75;;
67768;SDS011;54569;52.018;5.584;2023-06-14T02:57:35;5.70;;;3.30;;
67768;SDS011;54569;52.018;5.584;2023-06-14T03:00:02;6.15;;;3.00;;
67768;SDS011;54569;52.018;5.584;2023-06-14T03:02:30;7.32;;;2.67;;
67768;SDS011;54569;52.018;5.584;2023-06-14T03:04:56;8.35;;;2.95;;
67768;SDS011;54569;52.018;5.584;2023-06-14T03:07:28;4.32;;;2.75;;
67768;SDS011;54569;52.018;5.584;2023-06-14T03:09:55;4.40;;;2.58;;
67768;SDS011;54569;52.018;5.584;2023-06-14T03:12:21;5.05;;;2.55;;
67768;SDS011;54569;52.018;5.584;2023-06-14T03:14:46;4.30;;;2.92;;
67768;SDS011;54569;52.018;5.584;2023-06-14T03:17:14;3.90;;;2.70;;
67768;SDS011;54569;52.018;5.584;2023-06-14T03:19:42;5.43;;;2.97;;
67768;SDS011;54569;52.018;5.584;2023-06-14T03:22:08;4.97;;;2.63;;
67768;SDS011;54569;52.018;5.584;2023-06-14T03:24:36;4.55;;;2.70;;
67768;SDS011;54569;52.018;5.584;2023-06-14T03:27:06;7.53;;;2.95;;
67768;SDS011;54569;52.018;5.584;2023-06-14T03:29:36;5.78;;;3.40;;
67768;SDS011;54569;52.018;5.584;2023-06-14T03:32:02;4.78;;;3.17;;
67768;SDS011;54569;52.018;5.584;2023-06-14T03:34:41;7.63;;;2.80;;
67768;SDS011;54569;52.018;5.584;2023-06-14T03:37:11;3.33;;;2.45;;
67768;SDS011;54569;52.018;5.584;2023-06-14T03:39:37;4.55;;;2.60;;
67768;SDS011;54569;52.018;5.584;2023-06-14T03:42:03;4.72;;;2.63;;
67768;SDS011;54569;52.018;5.584;2023-06-14T03:44:31;4.28;;;2.65;;
67768;SDS011;54569;52.018;5.584;2023-06-14T03:46:58;6.50;;;3.08;;
67768;SDS011;54569;52.018;5.584;2023-06-14T03:49:25;4.07;;;2.88;;
67768;SDS011;54569;52.018;5.584;2023-06-14T03:51:51;3.72;;;2.88;;
67768;SDS011;54569;52.018;5.584;2023-06-14T03:54:19;3.05;;;2.75;;
67768;SDS011;54569;52.018;5.584;2023-06-14T03:56:46;8.88;;;3.22;;
67768;SDS011;54569;52.018;5.584;2023-06-14T03:59:12;4.97;;;2.80;;
67768;SDS011;54569;52.018;5.584;2023-06-14T04:01:38;4.07;;;2.78;;
67768;SDS011;54569;52.018;5.584;2023-06-14T04:04:13;7.65;;;2.88;;
67768;SDS011;54569;52.018;5.584;2023-06-14T04:06:38;6.45;;;3.17;;
67768;SDS011;54569;52.018;5.584;2023-06-14T04:09:06;6.63;;;2.88;;
67768;SDS011;54569;52.018;5.584;2023-06-14T04:11:32;2.92;;;2.55;;
67768;SDS011;54569;52.018;5.584;2023-06-14T04:13:58;3.92;;;2.30;;
67768;SDS011;54569;52.018;5.584;2023-06-14T04:16:24;8.23;;;3.03;;
67768;SDS011;54569;52.018;5.584;2023-06-14T04:18:50;5.20;;;2.80;;
67768;SDS011;54569;52.018;5.584;2023-06-14T04:21:18;5.35;;;2.78;;
67768;SDS011;54569;52.018;5.584;2023-06-14T04:23:45;3.83;;;2.67;;
67768;SDS011;54569;52.018;5.584;2023-06-14T04:26:13;5.38;;;3.00;;
67768;SDS011;54569;52.018;5.584;2023-06-14T04:28:39;4.47;;;2.80;;
67768;SDS011;54569;52.018;5.584;2023-06-14T04:31:07;6.60;;;2.67;;
67768;SDS011;54569;52.018;5.584;2023-06-14T04:33:36;6.88;;;3.10;;
67768;SDS011;54569;52.018;5.584;2023-06-14T04:36:09;4.50;;;3.35;;
67768;SDS011;54569;52.018;5.584;2023-06-14T04:38:37;4.35;;;2.40;;
67768;SDS011;54569;52.018;5.584;2023-06-14T04:41:03;5.35;;;3.25;;
67768;SDS011;54569;52.018;5.584;2023-06-14T04:43:31;4.40;;;2.70;;
67768;SDS011;54569;52.018;5.584;2023-06-14T04:46:02;6.72;;;3.03;;
67768;SDS011;54569;52.018;5.584;2023-06-14T04:48:30;7.22;;;2.97;;
67768;SDS011;54569;52.018;5.584;2023-06-14T04:50:56;3.40;;;2.78;;
67768;SDS011;54569;52.018;5.584;2023-06-14T04:53:22;3.58;;;2.60;;
67768;SDS011;54569;52.018;5.584;2023-06-14T04:55:50;7.05;;;2.60;;
67768;SDS011;54569;52.018;5.584;2023-06-14T04:58:17;5.05;;;2.72;;
67768;SDS011;54569;52.018;5.584;2023-06-14T05:00:43;3.75;;;2.35;;
67768;SDS011;54569;52.018;5.584;2023-06-14T05:03:09;5.07;;;2.83;;
67768;SDS011;54569;52.018;5.584;2023-06-14T05:05:39;6.03;;;2.55;;
67768;SDS011;54569;52.018;5.584;2023-06-14T05:08:06;3.80;;;2.33;;
67768;SDS011;54569;52.018;5.584;2023-06-14T05:10:32;3.67;;;2.63;;
67768;SDS011;54569;52.018;5.584;2023-06-14T05:13:00;2.92;;;2.42;;
67768;SDS011;54569;52.018;5.584;2023-06-14T05:15:26;4.70;;;3.00;;
67768;SDS011;54569;52.018;5.584;2023-06-14T05:17:54;5.70;;;2.90;;
67768;SDS011;54569;52.018;5.584;2023-06-14T05:20:24;5.53;;;3.00;;
67768;SDS011;54569;52.018;5.584;2023-06-14T05:22:52;4.05;;;2.60;;
67768;SDS011;54569;52.018;5.584;2023-06-14T05:25:19;4.57;;;2.63;;
67768;SDS011;54569;52.018;5.584;2023-06-14T05:27:46;4.35;;;2.97;;
67768;SDS011;54569;52.018;5.584;2023-06-14T05:30:12;5.57;;;2.80;;
67768;SDS011;54569;52.018;5.584;2023-06-14T05:32:39;4.15;;;2.80;;
67768;SDS011;54569;52.018;5.584;2023-06-14T05:35:05;6.45;;;2.67;;
67768;SDS011;54569;52.018;5.584;2023-06-14T05:37:31;5.85;;;2.80;;
67768;SDS011;54569;52.018;5.584;2023-06-14T05:39:57;9.95;;;2.90;;
67768;SDS011;54569;52.018;5.584;2023-06-14T05:42:23;5.55;;;2.70;;
67768;SDS011;54569;52.018;5.584;2023-06-14T05:44:49;3.25;;;2.60;;
67768;SDS011;54569;52.018;5.584;2023-06-14T05:47:15;4.22;;;2.65;;
67768;SDS011;54569;52.018;5.584;2023-06-14T05:49:41;6.55;;;2.72;;
67768;SDS011;54569;52.018;5.584;2023-06-14T05:52:07;4.03;;;3.05;;
67768;SDS011;54569;52.018;5.584;2023-06-14T05:54:33;3.72;;;2.72;;
67768;SDS011;54569;52.018;5.584;2023-06-14T05:56:58;4.75;;;2.80;;
67768;SDS011;54569;52.018;5.584;2023-06-14T05:59:26;2.90;;;2.60;;
67768;SDS011;54569;52.018;5.584;2023-06-14T06:01:53;3.88;;;2.65;;
67768;SDS011;54569;52.018;5.584;2023-06-14T06:04:18;3.22;;;3.03;;
67768;SDS011;54569;52.018;5.584;2023-06-14T06:06:45;3.78;;;3.15;;
67768;SDS011;54569;52.018;5.584;2023-06-14T06:09:11;5.28;;;2.80;;
67768;SDS011;54569;52.018;5.584;2023-06-14T06:11:37;4.07;;;2.90;;
67768;SDS011;54569;52.018;5.584;2023-06-14T06:14:03;7.45;;;3.00;;
67768;SDS011;54569;52.018;5.584;2023-06-14T06:16:28;7.20;;;2.80;;
67768;SDS011;54569;52.018;5.584;2023-06-14T06:18:54;2.90;;;2.50;;
67768;SDS011;54569;52.018;5.584;2023-06-14T06:21:19;2.95;;;2.45;;
67768;SDS011;54569;52.018;5.584;2023-06-14T06:23:45;3.65;;;2.70;;
67768;SDS011;54569;52.018;5.584;2023-06-14T06:26:11;3.75;;;2.50;;
67768;SDS011;54569;52.018;5.584;2023-06-14T06:28:36;3.20;;;2.88;;
67768;SDS011;54569;52.018;5.584;2023-06-14T06:31:02;5.82;;;2.70;;
67768;SDS011;54569;52.018;5.584;2023-06-14T06:33:28;4.43;;;2.67;;
67768;SDS011;54569;52.018;5.584;2023-06-14T06:35:53;6.03;;;2.92;;
67768;SDS011;54569;52.018;5.584;2023-06-14T06:38:19;4.45;;;3.00;;
67768;SDS011;54569;52.018;5.584;2023-06-14T06:40:45;4.63;;;2.72;;
67768;SDS011;54569;52.018;5.584;2023-06-14T06:43:10;3.78;;;2.83;;
67768;SDS011;54569;52.018;5.584;2023-06-14T06:45:43;4.70;;;2.70;;
67768;SDS011;54569;52.018;5.584;2023-06-14T06:48:09;4.00;;;2.83;;
67768;SDS011;54569;52.018;5.584;2023-06-14T06:50:35;4.28;;;2.90;;
67768;SDS011;54569;52.018;5.584;2023-06-14T06:53:01;4.50;;;2.92;;
67768;SDS011;54569;52.018;5.584;2023-06-14T06:55:27;4.68;;;2.90;;
67768;SDS011;54569;52.018;5.584;2023-06-14T06:57:53;6.80;;;2.75;;
67768;SDS011;54569;52.018;5.584;2023-06-14T07:00:19;3.83;;;2.83;;
67768;SDS011;54569;52.018;5.584;2023-06-14T07:02:45;2.70;;;2.50;;
67768;SDS011;54569;52.018;5.584;2023-06-14T07:05:11;6.97;;;2.85;;
67768;SDS011;54569;52.018;5.584;2023-06-14T07:07:37;8.05;;;2.30;;
67768;SDS011;54569;52.018;5.584;2023-06-14T07:10:03;8.60;;;3.03;;
67768;SDS011;54569;52.018;5.584;2023-06-14T07:12:30;5.65;;;2.53;;
67768;SDS011;54569;52.018;5.584;2023-06-14T07:14:58;5.70;;;2.72;;
67768;SDS011;54569;52.018;5.584;2023-06-14T07:17:26;5.10;;;2.90;;
67768;SDS011;54569;52.018;5.584;2023-06-14T07:19:52;3.92;;;2.50;;
67768;SDS011;54569;52.018;5.584;2023-06-14T07:22:18;5.07;;;2.50;;
67768;SDS011;54569;52.018;5.584;2023-06-14T07:24:45;3.88;;;2.88;;
67768;SDS011;54569;52.018;5.584;2023-06-14T07:27:10;2.92;;;2.55;;
67768;SDS011;54569;52.018;5.584;2023-06-14T07:29:38;4.28;;;2.55;;
67768;SDS011;54569;52.018;5.584;2023-06-14T07:32:04;4.32;;;2.67;;
67768;SDS011;54569;52.018;5.584;2023-06-14T07:34:30;3.97;;;2.50;;
67768;SDS011;54569;52.018;5.584;2023-06-14T07:36:56;3.88;;;2.30;;
67768;SDS011;54569;52.018;5.584;2023-06-14T07:39:21;4.53;;;2.00;;
67768;SDS011;54569;52.018;5.584;2023-06-14T07:41:47;2.40;;;1.75;;
67768;SDS011;54569;52.018;5.584;2023-06-14T07:44:12;5.20;;;1.88;;
67768;SDS011;54569;52.018;5.584;2023-06-14T07:46:38;2.92;;;1.92;;
67768;SDS011;54569;52.018;5.584;2023-06-14T07:49:04;4.05;;;1.98;;
67768;SDS011;54569;52.018;5.584;2023-06-14T07:51:30;2.33;;;1.95;;
67768;SDS011;54569;52.018;5.584;2023-06-14T07:53:55;2.85;;;2.00;;
67768;SDS011;54569;52.018;5.584;2023-06-14T07:56:21;3.15;;;2.17;;
67768;SDS011;54569;52.018;5.584;2023-06-14T07:58:48;2.63;;;1.80;;
67768;SDS011;54569;52.018;5.584;2023-06-14T08:01:14;2.40;;;1.80;;
67768;SDS011;54569;52.018;5.584;2023-06-14T08:03:40;2.17;;;1.63;;
67768;SDS011;54569;52.018;5.584;2023-06-14T08:06:06;2.55;;;1.90;;
67768;SDS011;54569;52.018;5.584;2023-06-14T08:08:32;1.60;;;1.50;;
67768;SDS011;54569;52.018;5.584;2023-06-14T08:10:57;3.05;;;1.92;;
67768;SDS011;54569;52.018;5.584;2023-06-14T08:13:23;2.08;;;1.45;;
67768;SDS011;54569;52.018;5.584;2023-06-14T08:15:49;1.73;;;1.55;;
67768;SDS011;54569;52.018;5.584;2023-06-14T08:18:14;1.70;;;1.60;;
67768;SDS011;54569;52.018;5.584;2023-06-14T08:20:40;3.05;;;1.60;;
67768;SDS011;54569;52.018;5.584;2023-06-14T08:23:06;2.65;;;1.80;;
67768;SDS011;54569;52.018;5.584;2023-06-14T08:25:34;3.17;;;1.60;;
67768;SDS011;54569;52.018;5.584;2023-06-14T08:28:00;1.77;;;1.55;;
67768;SDS011;54569;52.018;5.584;2023-06-14T08:30:25;2.17;;;1.70;;
67768;SDS011;54569;52.018;5.584;2023-06-14T08:32:51;1.70;;;1.60;;
67768;SDS011;54569;52.018;5.584;2023-06-14T08:35:17;5.88;;;1.70;;
67768;SDS011;54569;52.018;5.584;2023-06-14T08:37:43;2.28;;;1.52;;
67768;SDS011;54569;52.018;5.584;2023-06-14T08:40:23;1.50;;;1.40;;
67768;SDS011;54569;52.018;5.584;2023-06-14T08:42:52;2.22;;;1.35;;
67768;SDS011;54569;52.018;5.584;2023-06-14T08:45:19;2.00;;;1.30;;
67768;SDS011;54569;52.018;5.584;2023-06-14T08:47:46;1.73;;;1.52;;
67768;SDS011;54569;52.018;5.584;2023-06-14T08:50:23;5.47;;;1.50;;
67768;SDS011;54569;52.018;5.584;2023-06-14T08:52:55;3.15;;;1.70;;
67768;SDS011;54569;52.018;5.584;2023-06-14T08:55:25;1.98;;;1.77;;
67768;SDS011;54569;52.018;5.584;2023-06-14T08:57:53;1.65;;;1.50;;
67768;SDS011;54569;52.018;5.584;2023-06-14T09:00:20;3.55;;;1.45;;
67768;SDS011;54569;52.018;5.584;2023-06-14T09:02:46;1.42;;;1.33;;
67768;SDS011;54569;52.018;5.584;2023-06-14T09:05:12;2.25;;;1.52;;
67768;SDS011;54569;52.018;5.584;2023-06-14T09:07:41;3.15;;;1.60;;
67768;SDS011;54569;52.018;5.584;2023-06-14T09:10:13;1.70;;;1.60;;
67768;SDS011;54569;52.018;5.584;2023-06-14T09:12:40;1.73;;;1.63;;
67768;SDS011;54569;52.018;5.584;2023-06-14T09:15:07;1.90;;;1.80;;
67768;SDS011;54569;52.018;5.584;2023-06-14T09:17:37;4.95;;;1.92;;
67768;SDS011;54569;52.018;5.584;2023-06-14T09:20:04;4.25;;;1.85;;
67768;SDS011;54569;52.018;5.584;2023-06-14T09:22:32;4.88;;;1.90;;
67768;SDS011;54569;52.018;5.584;2023-06-14T09:24:58;3.67;;;1.90;;
67768;SDS011;54569;52.018;5.584;2023-06-14T09:27:28;2.17;;;1.48;;
67768;SDS011;54569;52.018;5.584;2023-06-14T09:29:54;2.65;;;1.73;;
67768;SDS011;54569;52.018;5.584;2023-06-14T09:32:20;1.50;;;1.40;;
67768;SDS011;54569;52.018;5.584;2023-06-14T09:34:47;1.60;;;1.50;;
67768;SDS011;54569;52.018;5.584;2023-06-14T09:37:13;1.40;;;1.30;;
67768;SDS011;54569;52.018;5.584;2023-06-14T09:39:52;2.75;;;1.50;;
67768;SDS011;54569;52.018;5.584;2023-06-14T09:42:18;3.25;;;1.48;;
67768;SDS011;54569;52.018;5.584;2023-06-14T09:44:48;2.22;;;1.33;;
67768;SDS011;54569;52.018;5.584;2023-06-14T09:47:15;2.28;;;1.45;;
67768;SDS011;54569;52.018;5.584;2023-06-14T09:49:41;4.25;;;1.60;;
67768;SDS011;54569;52.018;5.584;2023-06-14T09:52:12;2.53;;;1.65;;
67768;SDS011;54569;52.018;5.584;2023-06-14T09:54:41;1.87;;;1.47;;
67768;SDS011;54569;52.018;5.584;2023-06-14T09:57:21;1.35;;;1.25;;
67768;SDS011;54569;52.018;5.584;2023-06-14T09:59:48;1.83;;;1.73;;
67768;SDS011;54569;52.018;5.584;2023-06-14T10:05:03;1.50;;;1.40;;
67768;SDS011;54569;52.018;5.584;2023-06-14T10:07:35;2.08;;;1.25;;
67768;SDS011;54569;52.018;5.584;2023-06-14T10:10:06;1.60;;;1.50;;
67768;SDS011;54569;52.018;5.584;2023-06-14T10:12:32;3.28;;;1.60;;
67768;SDS011;54569;52.018;5.584;2023-06-14T10:14:58;3.33;;;1.40;;
67768;SDS011;54569;52.018;5.584;2023-06-14T10:17:38;1.85;;;1.50;;
67768;SDS011;54569;52.018;5.584;2023-06-14T10:25:35;2.05;;;1.60;;
67768;SDS011;54569;52.018;5.584;2023-06-14T10:28:17;2.28;;;1.63;;
67768;SDS011;54569;52.018;5.584;2023-06-14T10:33:35;2.03;;;1.50;;
67768;SDS011;54569;52.018;5.584;2023-06-14T10:41:33;2.15;;;1.30;;
67768;SDS011;54569;52.018;5.584;2023-06-14T10:46:38;1.83;;;1.48;;
67768;SDS011;54569;52.018;5.584;2023-06-14T10:49:05;5.47;;;1.50;;
67768;SDS011;54569;52.018;5.584;2023-06-14T10:51:44;2.25;;;1.70;;
67768;SDS011;54569;52.018;5.584;2023-06-14T10:54:22;2.38;;;1.63;;
67768;SDS011;54569;52.018;5.584;2023-06-14T10:56:49;2.55;;;1.70;;
67768;SDS011;54569;52.018;5.584;2023-06-14T10:59:16;4.57;;;1.67;;
67768;SDS011;54569;52.018;5.584;2023-06-14T11:04:16;5.32;;;1.88;;
67768;SDS011;54569;52.018;5.584;2023-06-14T11:06:46;4.28;;;1.88;;
67768;SDS011;54569;52.018;5.584;2023-06-14T11:11:59;2.97;;;1.50;;
67768;SDS011;54569;52.018;5.584;2023-06-14T11:14:30;1.65;;;1.40;;
67768;SDS011;54569;52.018;5.584;2023-06-14T11:16:56;2.00;;;1.40;;
67768;SDS011;54569;52.018;5.584;2023-06-14T11:19:22;1.48;;;1.38;;
67768;SDS011;54569;52.018;5.584;2023-06-14T11:21:48;2.00;;;1.75;;
67768;SDS011;54569;52.018;5.584;2023-06-14T11:24:14;1.67;;;1.58;;
67768;SDS011;54569;52.018;5.584;2023-06-14T11:26:40;4.07;;;1.40;;
67768;SDS011;54569;52.018;5.584;2023-06-14T11:29:05;3.92;;;1.63;;
67768;SDS011;54569;52.018;5.584;2023-06-14T11:31:31;2.60;;;1.40;;
67768;SDS011;54569;52.018;5.584;2023-06-14T11:33:57;2.50;;;1.50;;
67768;SDS011;54569;52.018;5.584;2023-06-14T11:36:30;1.50;;;1.40;;
67768;SDS011;54569;52.018;5.584;2023-06-14T11:39:00;1.63;;;1.40;;
67768;SDS011;54569;52.018;5.584;2023-06-14T11:41:38;2.33;;;1.58;;
67768;SDS011;54569;52.018;5.584;2023-06-14T11:44:05;1.27;;;1.17;;
67768;SDS011;54569;52.018;5.584;2023-06-14T11:46:32;4.38;;;1.90;;
67768;SDS011;54569;52.018;5.584;2023-06-14T11:48:58;2.33;;;1.48;;
67768;SDS011;54569;52.018;5.584;2023-06-14T11:51:24;3.45;;;1.35;;
67768;SDS011;54569;52.018;5.584;2023-06-14T11:53:50;3.78;;;1.70;;
67768;SDS011;54569;52.018;5.584;2023-06-14T11:56:16;4.85;;;1.65;;
67768;SDS011;54569;52.018;5.584;2023-06-14T11:58:44;1.95;;;1.60;;
67768;SDS011;54569;52.018;5.584;2023-06-14T12:01:14;3.17;;;1.40;;
67768;SDS011;54569;52.018;5.584;2023-06-14T12:03:46;1.88;;;1.40;;
67768;SDS011;54569;52.018;5.584;2023-06-14T12:06:16;2.40;;;1.65;;
67768;SDS011;54569;52.018;5.584;2023-06-14T12:08:50;3.97;;;1.25;;
67768;SDS011;54569;52.018;5.584;2023-06-14T12:11:15;1.42;;;1.33;;
67768;SDS011;54569;52.018;5.584;2023-06-14T12:13:42;1.45;;;1.35;;
67768;SDS011;54569;52.018;5.584;2023-06-14T12:16:08;3.58;;;1.60;;
67768;SDS011;54569;52.018;5.584;2023-06-14T12:18:38;3.78;;;1.70;;
67768;SDS011;54569;52.018;5.584;2023-06-14T12:21:08;3.15;;;2.05;;
67768;SDS011;54569;52.018;5.584;2023-06-14T12:23:47;3.72;;;1.75;;
67768;SDS011;54569;52.018;5.584;2023-06-14T12:26:14;3.80;;;1.60;;
67768;SDS011;54569;52.018;5.584;2023-06-14T12:28:42;1.92;;;1.70;;
67768;SDS011;54569;52.018;5.584;2023-06-14T12:31:08;4.20;;;1.52;;
67768;SDS011;54569;52.018;5.584;2023-06-14T12:33:34;2.03;;;1.40;;
67768;SDS011;54569;52.018;5.584;2023-06-14T12:36:02;2.75;;;1.50;;
67768;SDS011;54569;52.018;5.584;2023-06-14T12:38:29;1.90;;;1.80;;
67768;SDS011;54569;52.018;5.584;2023-06-14T12:40:55;3.72;;;1.70;;
67768;SDS011;54569;52.018;5.584;2023-06-14T12:43:22;1.60;;;1.50;;
67768;SDS011;54569;52.018;5.584;2023-06-14T12:45:48;3.00;;;1.80;;
67768;SDS011;54569;52.018;5.584;2023-06-14T12:48:13;3.05;;;1.60;;
67768;SDS011;54569;52.018;5.584;2023-06-14T12:50:40;2.60;;;1.50;;
67768;SDS011;54569;52.018;5.584;2023-06-14T12:53:09;3.65;;;1.73;;
67768;SDS011;54569;52.018;5.584;2023-06-14T12:55:35;1.73;;;1.40;;
67768;SDS011;54569;52.018;5.584;2023-06-14T12:58:00;1.67;;;1.58;;
67768;SDS011;54569;52.018;5.584;2023-06-14T13:00:26;2.70;;;1.52;;
67768;SDS011;54569;52.018;5.584;2023-06-14T13:02:52;1.85;;;1.65;;
67768;SDS011;54569;52.018;5.584;2023-06-14T13:05:18;2.40;;;1.55;;
67768;SDS011;54569;52.018;5.584;2023-06-14T13:07:44;2.67;;;1.90;;
67768;SDS011;54569;52.018;5.584;2023-06-14T13:10:10;4.10;;;1.48;;
67768;SDS011;54569;52.018;5.584;2023-06-14T13:12:36;1.52;;;1.10;;
67768;SDS011;54569;52.018;5.584;2023-06-14T13:15:02;3.13;;;1.58;;
67768;SDS011;54569;52.018;5.584;2023-06-14T13:17:28;1.27;;;1.17;;
67768;SDS011;54569;52.018;5.584;2023-06-14T13:19:53;2.25;;;1.20;;
67768;SDS011;54569;52.018;5.584;2023-06-14T13:22:19;1.23;;;1.10;;
67768;SDS011;54569;52.018;5.584;2023-06-14T13:24:48;1.95;;;1.10;;
67768;SDS011;54569;52.018;5.584;2023-06-14T13:27:14;2.15;;;1.10;;
67768;SDS011;54569;52.018;5.584;2023-06-14T13:29:40;2.78;;;1.25;;
67768;SDS011;54569;52.018;5.584;2023-06-14T13:32:06;3.08;;;1.52;;
67768;SDS011;54569;52.018;5.584;2023-06-14T13:34:32;1.52;;;1.42;;
67768;SDS011;54569;52.018;5.584;2023-06-14T13:36:58;1.40;;;1.30;;
67768;SDS011;54569;52.018;5.584;2023-06-14T13:39:27;1.40;;;1.30;;
67768;SDS011;54569;52.018;5.584;2023-06-14T13:41:52;2.95;;;1.02;;
67768;SDS011;54569;52.018;5.584;2023-06-14T13:44:18;1.98;;;1.30;;
67768;SDS011;54569;52.018;5.584;2023-06-14T13:46:46;1.30;;;1.10;;
67768;SDS011;54569;52.018;5.584;2023-06-14T13:49:12;2.35;;;1.20;;
67768;SDS011;54569;52.018;5.584;2023-06-14T13:51:37;1.35;;;1.25;;
67768;SDS011;54569;52.018;5.584;2023-06-14T13:54:03;1.52;;;1.30;;
67768;SDS011;54569;52.018;5.584;2023-06-14T13:56:29;1.92;;;1.15;;
67768;SDS011;54569;52.018;5.584;2023-06-14T13:58:55;1.85;;;1.15;;
67768;SDS011;54569;52.018;5.584;2023-06-14T14:01:21;1.05;;;1.05;;
67768;SDS011;54569;52.018;5.584;2023-06-14T14:03:48;2.05;;;1.10;;
67768;SDS011;54569;52.018;5.584;2023-06-14T14:06:14;4.00;;;1.52;;
67768;SDS011;54569;52.018;5.584;2023-06-14T14:08:40;1.05;;;1.05;;
67768;SDS011;54569;52.018;5.584;2023-06-14T14:11:07;3.85;;;1.27;;
67768;SDS011;54569;52.018;5.584;2023-06-14T14:13:34;1.30;;;1.20;;
67768;SDS011;54569;52.018;5.584;2023-06-14T14:16:01;2.33;;;1.10;;
67768;SDS011;54569;52.018;5.584;2023-06-14T14:18:28;2.65;;;1.20;;
67768;SDS011;54569;52.018;5.584;2023-06-14T14:20:54;4.25;;;1.20;;
67768;SDS011;54569;52.018;5.584;2023-06-14T14:23:21;1.60;;;1.48;;
67768;SDS011;54569;52.018;5.584;2023-06-14T14:25:47;1.20;;;1.10;;
67768;SDS011;54569;52.018;5.584;2023-06-14T14:28:13;1.85;;;1.20;;
67768;SDS011;54569;52.018;5.584;2023-06-14T14:30:41;4.07;;;1.02;;
67768;SDS011;54569;52.018;5.584;2023-06-14T14:33:07;2.08;;;1.10;;
67768;SDS011;54569;52.018;5.584;2023-06-14T14:35:33;6.13;;;1.20;;
67768;SDS011;54569;52.018;5.584;2023-06-14T14:37:58;2.72;;;1.10;;
67768;SDS011;54569;52.018;5.584;2023-06-14T14:40:24;1.30;;;1.20;;
67768;SDS011;54569;52.018;5.584;2023-06-14T14:42:50;2.70;;;1.35;;
67768;SDS011;54569;52.018;5.584;2023-06-14T14:45:16;3.88;;;1.30;;
67768;SDS011;54569;52.018;5.584;2023-06-14T14:47:41;2.15;;;1.30;;
67768;SDS011;54569;52.018;5.584;2023-06-14T14:50:07;2.17;;;1.30;;
67768;SDS011;54569;52.018;5.584;2023-06-14T14:52:34;4.28;;;1.50;;
67768;SDS011;54569;52.018;5.584;2023-06-14T14:55:00;2.08;;;1.20;;
67768;SDS011;54569;52.018;5.584;2023-06-14T14:57:26;1.58;;;1.40;;
67768;SDS011;54569;52.018;5.584;2023-06-14T14:59:52;4.28;;;1.02;;
67768;SDS011;54569;52.018;5.584;2023-06-14T15:02:18;2.47;;;1.33;;
67768;SDS011;54569;52.018;5.584;2023-06-14T15:04:44;1.83;;;1.40;;
67768;SDS011;54569;52.018;5.584;2023-06-14T15:07:11;2.42;;;1.10;;
67768;SDS011;54569;52.018;5.584;2023-06-14T15:09:36;1.70;;;1.20;;
67768;SDS011;54569;52.018;5.584;2023-06-14T15:12:03;3.05;;;1.30;;
67768;SDS011;54569;52.018;5.584;2023-06-14T15:14:29;3.67;;;1.40;;